Time;durP1;ratioP1;P1;durP2;ratioP2;P2;SDS_P1;SDS_P2;PMS_P1;PMS_P2;Temp;Humidity;BMP_temperature;BMP_pressure;BME280_temperature;BME280_humidity;BME280_pressure;Samples;Min_cycle;Max_cycle;Signal;HPM_P1;HPM_P2
2021/07/05 00:01:10;;;;;;;11.38;10.18;;;16.60;99.90;;;;;;5086844;28;20040;-72
2021/07/05 00:03:36;;;;;;;10.57;9.55;;;16.70;99.90;;;;;;5087782;28;20043;-71
2021/07/05 00:06:02;;;;;;;10.82;9.80;;;16.70;99.90;;;;;;5090458;28;20068;-71
2021/07/05 00:08:28;;;;;;;10.57;9.63;;;16.70;99.90;;;;;;5091183;28;20031;-72
2021/07/05 00:10:53;;;;;;;9.75;8.95;;;16.70;99.90;;;;;;5073066;28;20120;-73
2021/07/05 00:13:19;;;;;;;11.23;9.38;;;16.70;99.90;;;;;;5086850;28;20037;-73
2021/07/05 00:15:45;;;;;;;9.68;8.85;;;16.70;99.90;;;;;;5072178;28;20541;-72
2021/07/05 00:18:10;;;;;;;10.13;8.23;;;16.70;99.90;;;;;;5072593;28;20031;-73
2021/07/05 00:20:40;;;;;;;12.88;9.18;;;16.70;99.90;;;;;;5080566;28;20015;-72
2021/07/05 00:23:06;;;;;;;8.90;8.20;;;16.70;99.90;;;;;;5077008;28;20064;-73
2021/07/05 00:25:32;;;;;;;9.85;8.85;;;16.70;99.90;;;;;;5073273;28;20025;-72
2021/07/05 00:27:59;;;;;;;9.02;8.13;;;16.70;99.90;;;;;;5082089;28;20111;-72
2021/07/05 00:30:26;;;;;;;9.52;7.72;;;16.60;99.90;;;;;;5072047;28;20099;-72
2021/07/05 00:32:52;;;;;;;8.98;8.02;;;16.60;99.90;;;;;;5072257;28;20048;-72
2021/07/05 00:35:20;;;;;;;8.95;7.28;;;16.60;99.90;;;;;;5084047;28;20103;-73
2021/07/05 00:37:46;;;;;;;10.95;8.18;;;16.60;99.90;;;;;;5090809;28;20484;-72
2021/07/05 00:40:13;;;;;;;9.05;7.80;;;16.60;99.90;;;;;;5077079;28;20078;-72
2021/07/05 00:42:39;;;;;;;9.13;7.63;;;16.60;99.90;;;;;;5071226;28;20024;-73
2021/07/05 00:45:08;;;;;;;9.73;6.30;;;16.60;99.90;;;;;;5072145;28;20033;-72
2021/07/05 00:47:34;;;;;;;7.85;5.00;;;16.50;99.90;;;;;;5071620;28;20091;-72
2021/07/05 00:49:59;;;;;;;10.32;3.45;;;16.50;99.90;;;;;;5071541;28;20025;-72
2021/07/05 00:52:26;;;;;;;5.88;2.55;;;16.40;99.90;;;;;;5071766;28;20021;-74
2021/07/05 00:54:51;;;;;;;5.95;2.67;;;16.40;99.90;;;;;;5072048;28;20514;-72
2021/07/05 00:57:20;;;;;;;4.00;2.25;;;16.30;99.90;;;;;;5071172;28;20109;-72
2021/07/05 00:59:50;;;;;;;6.32;2.90;;;16.20;99.90;;;;;;5071873;28;20038;-72
2021/07/05 01:02:17;;;;;;;7.80;2.53;;;16.10;99.90;;;;;;5071720;28;20385;-72
2021/07/05 01:04:43;;;;;;;9.70;3.08;;;16.10;99.90;;;;;;5070719;28;20047;-72
2021/07/05 01:07:09;;;;;;;9.30;2.83;;;16.00;99.90;;;;;;5071296;28;20491;-73
2021/07/05 01:09:34;;;;;;;8.88;3.60;;;16.00;99.90;;;;;;5071166;28;20107;-73
2021/07/05 01:12:00;;;;;;;9.57;3.08;;;15.90;99.90;;;;;;5081251;28;20107;-73
2021/07/05 01:14:25;;;;;;;10.50;3.35;;;15.90;99.90;;;;;;5075468;28;20032;-73
2021/07/05 01:16:51;;;;;;;7.30;2.97;;;15.90;99.90;;;;;;5071831;28;20009;-73
2021/07/05 01:19:16;;;;;;;5.93;2.85;;;15.90;99.90;;;;;;5071187;28;20036;-73
2021/07/05 01:21:42;;;;;;;5.05;2.70;;;15.90;99.90;;;;;;5071492;28;20029;-73
2021/07/05 01:24:07;;;;;;;18.63;3.45;;;15.90;99.90;;;;;;5071779;28;20032;-73
2021/07/05 01:26:33;;;;;;;9.88;2.90;;;15.90;99.90;;;;;;5070795;28;20090;-73
2021/07/05 01:28:59;;;;;;;5.38;2.60;;;15.80;99.90;;;;;;5071624;28;20043;-72
2021/07/05 01:31:24;;;;;;;13.25;3.45;;;15.80;99.90;;;;;;5070490;28;20024;-73
2021/07/05 01:33:52;;;;;;;12.15;3.28;;;15.80;99.90;;;;;;5071723;28;20059;-73
2021/07/05 01:36:18;;;;;;;7.75;3.03;;;15.70;99.90;;;;;;5071646;28;20044;-73
2021/07/05 01:38:43;;;;;;;12.32;2.88;;;15.70;99.90;;;;;;5070996;28;20125;-72
2021/07/05 01:41:09;;;;;;;13.90;3.50;;;15.80;99.90;;;;;;5071579;28;20078;-72
2021/07/05 01:43:35;;;;;;;17.55;4.15;;;15.80;99.90;;;;;;5071061;28;20033;-72
2021/07/05 01:46:01;;;;;;;8.65;4.32;;;15.80;99.90;;;;;;5070734;28;20414;-72
2021/07/05 01:48:27;;;;;;;12.05;3.53;;;15.90;99.90;;;;;;5070635;28;20066;-73
2021/07/05 01:50:53;;;;;;;11.35;3.20;;;15.90;99.90;;;;;;5073281;28;20025;-72
2021/07/05 01:53:19;;;;;;;10.70;4.00;;;15.90;99.90;;;;;;5074343;28;20075;-72
2021/07/05 01:55:45;;;;;;;7.90;3.47;;;16.00;99.90;;;;;;5075482;28;20484;-72
2021/07/05 01:58:11;;;;;;;5.93;3.30;;;16.00;99.90;;;;;;5075243;28;20027;-72
2021/07/05 02:00:41;;;;;;;10.32;4.00;;;16.00;99.90;;;;;;5078380;28;20454;-73
2021/07/05 02:03:06;;;;;;;11.20;3.20;;;16.00;99.90;;;;;;5084660;28;20028;-74
2021/07/05 02:05:33;;;;;;;11.55;3.90;;;16.00;99.90;;;;;;5077989;28;20020;-73
2021/07/05 02:07:58;;;;;;;8.43;2.75;;;16.00;99.90;;;;;;5076113;28;20021;-74
2021/07/05 02:10:28;;;;;;;6.88;3.17;;;16.00;99.90;;;;;;5077859;28;20082;-74
2021/07/05 02:12:56;;;;;;;13.65;2.95;;;15.90;99.90;;;;;;5089448;28;20020;-73
2021/07/05 02:15:25;;;;;;;8.55;2.85;;;15.90;99.90;;;;;;5074318;28;20063;-74
2021/07/05 02:17:51;;;;;;;10.70;3.78;;;15.90;99.90;;;;;;5074851;28;20088;-74
2021/07/05 02:20:20;;;;;;;10.82;3.20;;;15.90;99.90;;;;;;5075065;28;20029;-74
2021/07/05 02:22:50;;;;;;;9.63;2.63;;;15.90;99.90;;;;;;5073911;28;20028;-74
2021/07/05 02:25:16;;;;;;;5.32;2.85;;;15.90;99.90;;;;;;5074986;28;20058;-74
2021/07/05 02:27:43;;;;;;;8.43;3.20;;;16.00;99.90;;;;;;5074328;28;20029;-74
2021/07/05 02:30:15;;;;;;;13.27;3.33;;;15.90;99.90;;;;;;5058035;28;20115;-74
2021/07/05 02:32:46;;;;;;;10.68;3.85;;;15.90;99.90;;;;;;5074794;28;20070;-73
2021/07/05 02:35:15;;;;;;;10.55;3.80;;;15.90;99.90;;;;;;5074036;28;20029;-73
2021/07/05 02:37:42;;;;;;;8.13;3.17;;;15.90;99.90;;;;;;5074339;28;20108;-73
2021/07/05 02:40:10;;;;;;;6.38;2.85;;;15.90;99.90;;;;;;5074252;28;20081;-73
2021/07/05 02:42:37;;;;;;;7.93;3.15;;;15.90;99.90;;;;;;5073428;28;20025;-73
2021/07/05 02:45:08;;;;;;;11.57;3.22;;;15.90;99.90;;;;;;5074297;28;20037;-72
2021/07/05 02:47:34;;;;;;;11.00;3.05;;;15.80;99.90;;;;;;5075029;28;20051;-72
2021/07/05 02:50:00;;;;;;;9.45;3.47;;;15.80;99.90;;;;;;5073630;28;20020;-72
2021/07/05 02:52:25;;;;;;;8.50;3.40;;;15.80;99.90;;;;;;5073764;28;20036;-73
2021/07/05 02:54:51;;;;;;;7.05;3.50;;;15.80;99.90;;;;;;5074282;28;20364;-73
2021/07/05 02:57:29;;;;;;;10.18;3.17;;;15.80;99.90;;;;;;5073519;28;20025;-73
2021/07/05 03:00:02;;;;;;;5.78;3.33;;;15.80;99.90;;;;;;5074277;28;20017;-73
2021/07/05 03:02:33;;;;;;;10.35;4.00;;;15.80;99.90;;;;;;5072342;28;20031;-73
2021/07/05 03:05:00;;;;;;;11.60;4.13;;;15.70;99.90;;;;;;5072868;28;20051;-73
2021/07/05 03:07:26;;;;;;;10.05;3.60;;;15.70;99.90;;;;;;5074024;28;20017;-73
2021/07/05 03:09:52;;;;;;;8.00;3.67;;;15.70;99.90;;;;;;5073348;28;20056;-73
2021/07/05 03:12:18;;;;;;;9.25;4.35;;;15.70;99.90;;;;;;5086331;28;20104;-72
2021/07/05 03:14:43;;;;;;;9.60;4.40;;;15.70;99.90;;;;;;5075562;28;20025;-72
2021/07/05 03:17:09;;;;;;;9.15;4.05;;;15.70;99.90;;;;;;5073181;28;20023;-74
2021/07/05 03:19:34;;;;;;;7.72;4.22;;;15.60;99.90;;;;;;5073103;28;20082;-73
2021/07/05 03:22:00;;;;;;;15.38;4.07;;;15.70;99.90;;;;;;5074034;28;20016;-73
2021/07/05 03:24:25;;;;;;;13.38;4.30;;;15.60;99.90;;;;;;5072141;28;20063;-73
2021/07/05 03:26:51;;;;;;;15.43;4.70;;;15.60;99.90;;;;;;5073926;28;20021;-73
2021/07/05 03:29:17;;;;;;;4.38;3.17;;;15.70;99.90;;;;;;5073882;28;20025;-73
2021/07/05 03:31:42;;;;;;;6.82;3.83;;;15.60;99.90;;;;;;5072403;28;20017;-73
2021/07/05 03:34:08;;;;;;;10.02;4.30;;;15.60;99.90;;;;;;5073983;28;20048;-73
2021/07/05 03:36:33;;;;;;;7.72;4.47;;;15.50;99.90;;;;;;5072847;28;20024;-73
2021/07/05 03:38:59;;;;;;;7.82;4.50;;;15.60;99.90;;;;;;5072817;28;20033;-73
2021/07/05 03:41:24;;;;;;;8.88;4.25;;;15.50;99.90;;;;;;5073256;28;20415;-72
2021/07/05 03:43:50;;;;;;;12.18;4.45;;;15.50;99.90;;;;;;5073623;28;20464;-73
2021/07/05 03:46:16;;;;;;;9.90;4.18;;;15.50;99.90;;;;;;5072474;28;20029;-73
2021/07/05 03:48:41;;;;;;;8.93;4.30;;;15.50;99.90;;;;;;5072316;28;20127;-73
2021/07/05 03:51:07;;;;;;;14.00;4.25;;;15.50;99.90;;;;;;5072737;28;20017;-71
2021/07/05 03:53:33;;;;;;;8.82;4.60;;;15.50;99.90;;;;;;5071819;28;20031;-72
2021/07/05 03:55:58;;;;;;;7.13;4.88;;;15.50;99.90;;;;;;5080940;28;20486;-72
2021/07/05 03:58:24;;;;;;;20.02;6.03;;;15.50;99.90;;;;;;5078836;28;20025;-72
2021/07/05 04:00:49;;;;;;;8.07;4.13;;;15.50;99.90;;;;;;5086520;28;20536;-72
2021/07/05 04:03:16;;;;;;;7.82;4.20;;;15.50;99.90;;;;;;5072989;28;20065;-72
2021/07/05 04:05:42;;;;;;;10.93;4.55;;;15.40;99.90;;;;;;5072227;28;20024;-72
2021/07/05 04:08:08;;;;;;;9.57;4.38;;;15.40;99.90;;;;;;5071834;28;20021;-73
2021/07/05 04:10:34;;;;;;;10.27;4.50;;;15.40;99.90;;;;;;5072387;28;20151;-72
2021/07/05 04:13:04;;;;;;;10.00;4.40;;;15.40;99.90;;;;;;5086566;28;20020;-72
2021/07/05 04:15:30;;;;;;;;;;;15.40;99.90;;;;;;5083393;28;20024;-73
2021/07/05 04:17:55;;;;;;;8.93;4.43;;;15.30;99.90;;;;;;5075614;28;19920;-73
2021/07/05 04:20:23;;;;;;;16.80;4.47;;;15.30;99.90;;;;;;5071370;28;20032;-73
2021/07/05 04:22:50;;;;;;;11.20;4.95;;;15.30;99.90;;;;;;5072427;28;20051;-72
2021/07/05 04:25:17;;;;;;;13.82;4.55;;;15.30;99.90;;;;;;5072344;28;20116;-72
2021/07/05 04:27:44;;;;;;;9.60;4.22;;;15.30;99.90;;;;;;5071783;28;20066;-73
2021/07/05 04:30:10;;;;;;;8.50;4.93;;;15.30;99.90;;;;;;5072219;28;20097;-72
2021/07/05 04:32:39;;;;;;;12.75;4.47;;;15.30;99.90;;;;;;5072360;28;20024;-74
2021/07/05 04:35:08;;;;;;;15.07;4.80;;;15.30;99.90;;;;;;5071506;28;20028;-73
2021/07/05 04:37:33;;;;;;;13.77;4.68;;;15.30;99.90;;;;;;5072167;28;20465;-73
2021/07/05 04:39:59;;;;;;;12.38;5.45;;;15.30;99.90;;;;;;5072202;28;20047;-74
2021/07/05 04:42:24;;;;;;;9.20;4.43;;;15.30;99.90;;;;;;5071466;28;20030;-74
2021/07/05 04:44:51;;;;;;;14.00;4.80;;;15.30;99.90;;;;;;5072166;28;20040;-72
2021/07/05 04:47:17;;;;;;;7.65;4.65;;;15.30;99.90;;;;;;5072105;28;20496;-72
2021/07/05 04:49:42;;;;;;;9.30;4.10;;;15.30;99.90;;;;;;5084145;28;20032;-72
2021/07/05 04:52:08;;;;;;;6.40;4.65;;;15.30;99.90;;;;;;5073564;28;20483;-74
2021/07/05 04:54:34;;;;;;;11.25;4.60;;;15.30;99.90;;;;;;5071929;28;20020;-72
2021/07/05 04:57:03;;;;;;;11.85;4.88;;;15.30;99.90;;;;;;5072103;28;20036;-72
2021/07/05 04:59:29;;;;;;;13.57;4.63;;;15.40;99.90;;;;;;5077586;28;20024;-72
2021/07/05 05:01:55;;;;;;;11.07;4.80;;;15.40;99.90;;;;;;5073068;28;20103;-72
2021/07/05 05:04:21;;;;;;;7.47;4.75;;;15.40;99.90;;;;;;5071094;28;20185;-73
2021/07/05 05:06:46;;;;;;;10.05;4.60;;;15.40;99.90;;;;;;5072041;28;20020;-72
2021/07/05 05:09:12;;;;;;;10.75;4.60;;;15.40;99.90;;;;;;5071526;28;20021;-72
2021/07/05 05:11:38;;;;;;;9.52;4.93;;;15.40;99.90;;;;;;5077838;28;20071;-72
2021/07/05 05:14:03;;;;;;;17.90;5.32;;;15.40;99.90;;;;;;5078968;28;20388;-72
2021/07/05 05:16:29;;;;;;;10.95;4.75;;;15.40;99.90;;;;;;5070697;28;20025;-72
2021/07/05 05:18:55;;;;;;;10.80;4.90;;;15.40;99.90;;;;;;5082386;28;20023;-72
2021/07/05 05:21:20;;;;;;;10.57;4.93;;;15.30;99.90;;;;;;5089357;28;20480;-72
2021/07/05 05:23:46;;;;;;;9.20;4.60;;;15.40;99.90;;;;;;5088902;28;20905;-71
2021/07/05 05:26:12;;;;;;;8.48;4.63;;;15.40;99.90;;;;;;5091272;28;20051;-72
2021/07/05 05:28:37;;;;;;;7.07;4.40;;;15.30;99.90;;;;;;5095047;28;20053;-74
2021/07/05 05:31:03;;;;;;;12.95;5.05;;;15.40;99.90;;;;;;5094810;28;20013;-73
2021/07/05 05:33:29;;;;;;;7.80;4.60;;;15.40;99.90;;;;;;5089125;28;20024;-72
2021/07/05 05:35:54;;;;;;;12.60;5.50;;;15.40;99.90;;;;;;5086684;28;20028;-72
2021/07/05 05:38:20;;;;;;;18.95;5.95;;;15.40;99.90;;;;;;5092467;28;20043;-73
2021/07/05 05:40:46;;;;;;;12.80;5.10;;;15.50;99.90;;;;;;5090111;28;20048;-73
2021/07/05 05:43:12;;;;;;;14.18;5.97;;;15.50;99.90;;;;;;5093061;28;20024;-73
2021/07/05 05:45:38;;;;;;;11.02;5.72;;;15.60;99.90;;;;;;5093325;28;20535;-73
2021/07/05 05:48:04;;;;;;;19.50;6.53;;;15.60;99.90;;;;;;5094562;28;20094;-72
2021/07/05 05:50:30;;;;;;;12.98;6.22;;;15.60;99.90;;;;;;5092140;28;20017;-72
2021/07/05 05:52:55;;;;;;;13.88;6.53;;;15.70;99.90;;;;;;5091723;28;20027;-73
2021/07/05 05:55:21;;;;;;;14.98;6.57;;;15.70;99.90;;;;;;5090747;28;20357;-72
2021/07/05 05:57:47;;;;;;;12.43;6.65;;;15.80;99.90;;;;;;5093355;28;20016;-72
2021/07/05 06:00:23;;;;;;;15.40;6.07;;;15.80;99.90;;;;;;5091864;28;20016;-72
2021/07/05 06:02:50;;;;;;;13.75;6.35;;;15.90;99.90;;;;;;5075846;28;20492;-72
2021/07/05 06:05:16;;;;;;;16.10;6.97;;;15.90;99.90;;;;;;5074418;28;20082;-73
2021/07/05 06:07:47;;;;;;;13.02;6.47;;;16.00;99.90;;;;;;5074110;28;20023;-72
2021/07/05 06:10:13;;;;;;;18.73;7.43;;;16.10;99.90;;;;;;5084541;28;20024;-72
2021/07/05 06:12:41;;;;;;;18.08;6.43;;;16.20;99.90;;;;;;5075602;28;20115;-72
2021/07/05 06:15:08;;;;;;;12.07;5.45;;;16.20;99.90;;;;;;5074506;28;20024;-72
2021/07/05 06:17:34;;;;;;;12.75;6.70;;;16.40;99.90;;;;;;5074046;28;20032;-73
2021/07/05 06:20:00;;;;;;;12.35;5.47;;;16.60;99.90;;;;;;5079014;28;20488;-73
2021/07/05 06:22:30;;;;;;;15.07;6.05;;;16.70;99.90;;;;;;5079729;28;20032;-72
2021/07/05 06:24:56;;;;;;;12.50;5.40;;;16.80;99.90;;;;;;5079872;28;20044;-72
2021/07/05 06:27:23;;;;;;;12.80;5.32;;;16.90;99.90;;;;;;5073156;28;20777;-73
2021/07/05 06:29:49;;;;;;;12.13;4.95;;;16.90;99.90;;;;;;5078374;28;20062;-72
2021/07/05 06:32:15;;;;;;;10.40;4.78;;;17.00;99.90;;;;;;5076265;28;20045;-73
2021/07/05 06:34:42;;;;;;;12.68;4.75;;;17.00;99.90;;;;;;5074848;28;20078;-72
2021/07/05 06:37:08;;;;;;;8.70;4.50;;;17.10;99.90;;;;;;5073625;28;20468;-72
2021/07/05 06:39:33;;;;;;;9.75;4.35;;;17.20;99.90;;;;;;5078694;28;20025;-72
2021/07/05 06:41:59;;;;;;;12.02;4.90;;;17.30;99.90;;;;;;5076117;28;20050;-72
2021/07/05 06:44:25;;;;;;;15.38;5.10;;;17.30;99.90;;;;;;5072050;28;20032;-74
2021/07/05 06:46:50;;;;;;;8.80;3.58;;;17.40;99.90;;;;;;5075732;28;20135;-74
2021/07/05 06:49:17;;;;;;;12.82;4.50;;;17.50;99.90;;;;;;5072797;28;20115;-73
2021/07/05 06:51:44;;;;;;;9.82;4.47;;;17.50;99.90;;;;;;5084392;28;20039;-72
2021/07/05 06:54:10;;;;;;;10.63;4.20;;;17.60;99.90;;;;;;5087010;28;20105;-74
2021/07/05 06:56:35;;;;;;;11.85;5.00;;;17.60;99.90;;;;;;5081363;28;20471;-73
2021/07/05 06:59:01;;;;;;;10.20;4.72;;;17.60;99.90;;;;;;5075030;28;20036;-74
2021/07/05 07:01:26;;;;;;;11.90;4.60;;;17.70;99.90;;;;;;5078001;28;20099;-73
2021/07/05 07:03:52;;;;;;;15.10;5.00;;;17.60;99.90;;;;;;5072830;28;20378;-73
2021/07/05 07:06:18;;;;;;;15.30;5.15;;;17.70;99.90;;;;;;5073540;28;20083;-74
2021/07/05 07:08:43;;;;;;;10.63;4.20;;;17.70;99.90;;;;;;5080057;28;20027;-74
2021/07/05 07:11:09;;;;;;;10.10;4.35;;;17.60;99.90;;;;;;5088441;28;20025;-74
2021/07/05 07:13:34;;;;;;;13.27;4.65;;;17.90;99.90;;;;;;5090367;28;20020;-74
2021/07/05 07:16:01;;;;;;;6.28;4.03;;;17.50;99.90;;;;;;5081765;28;20480;-74
2021/07/05 07:20:57;;;;;;;14.65;5.22;;;17.50;99.90;;;;;;5073074;28;20078;-74
2021/07/05 07:23:22;;;;;;;9.70;4.28;;;17.60;99.90;;;;;;5072353;28;20032;-73
2021/07/05 07:25:48;;;;;;;16.17;4.35;;;17.70;99.90;;;;;;5072939;28;20024;-72
2021/07/05 07:28:14;;;;;;;14.73;4.72;;;17.70;99.90;;;;;;5072834;28;20050;-74
2021/07/05 07:30:40;;;;;;;11.88;4.80;;;17.80;99.90;;;;;;5071892;28;20154;-73
2021/07/05 07:33:06;;;;;;;17.58;5.22;;;17.80;99.90;;;;;;5075628;28;20023;-74
2021/07/05 07:35:32;;;;;;;14.48;5.97;;;18.00;99.90;;;;;;5080602;28;20495;-74
2021/07/05 07:37:57;;;;;;;9.73;4.55;;;18.10;99.90;;;;;;5083169;28;20029;-74
2021/07/05 07:40:28;;;;;;;8.75;4.97;;;18.40;99.90;;;;;;5088479;28;20365;-74
2021/07/05 07:42:53;;;;;;;16.02;5.47;;;18.40;99.90;;;;;;5083063;28;20067;-73
2021/07/05 07:45:19;;;;;;;11.15;4.70;;;18.50;99.90;;;;;;5087507;28;20036;-74
2021/07/05 07:47:46;;;;;;;13.05;5.65;;;18.50;99.90;;;;;;5083964;28;20048;-75
2021/07/05 07:50:14;;;;;;;11.55;4.57;;;18.60;99.90;;;;;;5086257;28;20468;-73
2021/07/05 07:52:41;;;;;;;13.43;4.13;;;18.60;99.90;;;;;;5085246;28;20088;-73
2021/07/05 07:55:11;;;;;;;16.67;5.00;;;18.60;99.90;;;;;;5085048;28;20103;-75
2021/07/05 07:57:38;;;;;;;10.30;5.03;;;18.60;99.90;;;;;;5087318;28;20036;-75
2021/07/05 08:00:09;;;;;;;15.48;5.32;;;18.70;99.90;;;;;;5088146;28;20055;-75
2021/07/05 08:02:35;;;;;;;10.63;4.82;;;18.80;99.90;;;;;;5087590;28;20017;-73
2021/07/05 08:05:01;;;;;;;11.88;5.28;;;18.80;99.90;;;;;;5082389;28;20082;-73
2021/07/05 08:07:26;;;;;;;9.20;5.55;;;18.80;99.90;;;;;;5088112;28;20047;-73
2021/07/05 08:09:54;;;;;;;13.80;6.28;;;18.90;99.90;;;;;;5099556;28;20096;-73
2021/07/05 08:12:20;;;;;;;11.75;6.28;;;18.90;99.90;;;;;;5100640;28;20028;-73
2021/07/05 08:14:45;;;;;;;14.35;7.38;;;19.20;99.90;;;;;;5086057;28;20028;-73
2021/07/05 08:17:11;;;;;;;11.48;7.03;;;19.30;99.90;;;;;;5072779;28;20020;-73
2021/07/05 08:19:36;;;;;;;14.30;7.75;;;19.40;99.90;;;;;;5071725;28;20747;-73
2021/07/05 08:22:03;;;;;;;8.63;6.80;;;19.50;99.90;;;;;;5072616;28;20025;-73
2021/07/05 08:24:28;;;;;;;9.15;5.22;;;19.50;99.90;;;;;;5072291;28;20060;-73
2021/07/05 08:26:54;;;;;;;11.48;5.80;;;19.60;99.90;;;;;;5072145;28;20354;-73
2021/07/05 08:29:19;;;;;;;14.57;5.05;;;19.60;99.90;;;;;;5073798;28;20024;-74
2021/07/05 08:31:45;;;;;;;15.07;6.68;;;19.70;99.90;;;;;;5074636;28;20082;-74
2021/07/05 08:34:11;;;;;;;9.73;4.82;;;19.70;99.90;;;;;;5079779;28;20024;-73
2021/07/05 08:36:40;;;;;;;11.27;5.63;;;19.80;99.90;;;;;;5088827;28;20055;-73
2021/07/05 08:39:05;;;;;;;8.30;5.53;;;19.90;99.90;;;;;;5088294;28;20085;-74
2021/07/05 08:41:31;;;;;;;8.93;4.95;;;19.90;99.90;;;;;;5089600;28;20024;-74
2021/07/05 08:43:58;;;;;;;9.07;5.20;;;20.00;99.90;;;;;;5091070;28;20039;-74
2021/07/05 08:46:24;;;;;;;10.50;5.05;;;20.10;99.90;;;;;;5077053;28;20126;-74
2021/07/05 08:48:50;;;;;;;7.75;5.57;;;20.10;99.90;;;;;;5078668;28;20413;-74
2021/07/05 08:51:19;;;;;;;11.15;5.90;;;20.20;99.90;;;;;;5090697;28;20058;-74
2021/07/05 08:53:45;;;;;;;12.82;6.70;;;20.20;99.90;;;;;;5081408;28;20029;-74
2021/07/05 08:56:11;;;;;;;9.40;6.00;;;20.20;99.90;;;;;;5089006;28;20024;-74
2021/07/05 08:58:39;;;;;;;12.10;6.05;;;20.20;99.90;;;;;;5086585;28;20017;-74
2021/07/05 09:01:07;;;;;;;8.05;5.43;;;20.30;99.90;;;;;;5085315;28;20052;-74
2021/07/05 09:03:33;;;;;;;8.10;5.80;;;20.40;99.90;;;;;;5085814;28;20106;-74
2021/07/05 09:06:08;;;;;;;13.80;5.88;;;20.40;99.90;;;;;;5089492;28;20027;-74
2021/07/05 09:08:38;;;;;;;9.25;5.45;;;20.50;99.90;;;;;;5087471;28;20044;-74
2021/07/05 09:11:04;;;;;;;9.02;5.82;;;20.50;99.90;;;;;;5083562;28;20082;-75
2021/07/05 09:13:30;;;;;;;8.93;5.93;;;20.60;99.90;;;;;;5095730;28;20032;-74
2021/07/05 09:15:58;;;;;;;11.57;6.72;;;20.60;99.90;;;;;;5069056;28;20430;-75
2021/07/05 09:18:28;;;;;;;9.82;5.78;;;20.70;99.90;;;;;;5075180;28;20036;-74
2021/07/05 09:21:08;;;;;;;8.35;5.80;;;20.90;99.90;;;;;;5072203;28;20158;-74
2021/07/05 09:23:34;;;;;;;8.73;5.50;;;21.10;99.90;;;;;;5074606;28;20064;-75
2021/07/05 09:26:00;;;;;;;10.13;5.40;;;21.20;99.90;;;;;;5074731;28;20494;-74
2021/07/05 09:28:25;;;;;;;9.48;5.07;;;21.10;99.90;;;;;;5074075;28;20020;-74
2021/07/05 09:30:59;;;;;;;6.30;5.00;;;21.20;99.90;;;;;;5076044;28;20433;-74
2021/07/05 09:33:28;;;;;;;7.57;5.20;;;21.20;99.90;;;;;;5074196;28;20025;-73
2021/07/05 09:36:03;;;;;;;10.90;5.43;;;21.20;99.90;;;;;;5076705;28;20098;-74
2021/07/05 09:38:42;;;;;;;11.50;5.85;;;21.20;99.90;;;;;;5073650;28;20028;-74
2021/07/05 09:41:21;;;;;;;9.25;5.47;;;21.30;99.90;;;;;;5074334;28;20028;-74
2021/07/05 09:43:53;;;;;;;9.17;5.80;;;21.30;99.90;;;;;;5073727;28;20021;-74
2021/07/05 09:46:44;;;;;;;8.52;5.78;;;21.30;99.90;;;;;;5075109;28;20643;-74
2021/07/05 09:49:12;;;;;;;;;;;21.40;99.90;;;;;;5071921;28;20029;-75
2021/07/05 09:51:41;;;;;;;7.45;5.57;;;21.30;99.90;;;;;;5079933;28;19920;-73
2021/07/05 09:54:07;;;;;;;7.50;5.85;;;21.30;99.90;;;;;;5083593;28;20021;-73
2021/07/05 09:56:34;;;;;;;8.60;5.38;;;21.40;99.90;;;;;;5071656;28;20103;-73
2021/07/05 09:59:13;;;;;;;9.32;5.70;;;21.40;99.90;;;;;;5071445;28;20032;-73
2021/07/05 10:01:38;;;;;;;8.57;5.47;;;21.40;99.90;;;;;;5083939;28;20097;-73
2021/07/05 10:04:09;;;;;;;12.15;5.68;;;21.40;99.90;;;;;;5084133;28;20484;-72
2021/07/05 10:06:41;;;;;;;12.32;5.05;;;21.50;99.90;;;;;;5081827;28;20108;-73
2021/07/05 10:09:08;;;;;;;10.10;5.57;;;21.70;99.90;;;;;;5086176;28;20036;-73
2021/07/05 10:11:34;;;;;;;11.07;6.07;;;22.00;99.90;;;;;;5079192;28;20021;-73
2021/07/05 10:14:22;;;;;;;10.75;4.43;;;22.10;99.90;;;;;;5075897;28;20103;-73
2021/07/05 10:16:49;;;;;;;15.75;5.00;;;22.30;99.90;;;;;;5076786;28;20450;-73
2021/07/05 10:19:16;;;;;;;7.32;4.47;;;22.40;99.90;;;;;;5075664;28;20032;-73
2021/07/05 10:21:42;;;;;;;7.72;4.72;;;22.30;99.90;;;;;;5080987;28;20379;-73
2021/07/05 10:24:09;;;;;;;6.25;4.38;;;22.30;99.90;;;;;;5082696;28;20032;-72
2021/07/05 10:26:36;;;;;;;12.55;4.03;;;22.30;99.90;;;;;;5082047;28;20029;-73
2021/07/05 10:29:03;;;;;;;7.25;3.47;;;22.30;99.90;;;;;;5074815;28;20024;-73
2021/07/05 10:31:29;;;;;;;7.78;3.67;;;22.30;99.90;;;;;;5075524;28;20020;-72
2021/07/05 10:34:00;;;;;;;9.07;4.22;;;22.30;99.90;;;;;;5075362;28;20021;-73
2021/07/05 10:36:29;;;;;;;6.53;3.17;;;22.30;99.90;;;;;;5076781;28;20045;-73
2021/07/05 10:38:58;;;;;;;6.45;3.70;;;22.30;99.90;;;;;;5075680;28;20036;-72
2021/07/05 10:41:34;;;;;;;9.13;3.88;;;22.40;99.90;;;;;;5075599;28;20051;-72
2021/07/05 10:44:03;;;;;;;7.97;3.58;;;22.40;99.90;;;;;;5075352;28;20403;-72
2021/07/05 10:46:48;;;;;;;5.30;3.30;;;22.30;99.90;;;;;;5076416;28;20045;-73
2021/07/05 10:49:31;;;;;;;10.73;4.32;;;22.30;99.90;;;;;;5075250;28;20044;-72
2021/07/05 10:51:58;;;;;;;10.93;3.85;;;22.20;99.90;;;;;;5089801;28;20062;-72
2021/07/05 10:54:44;;;;;;;6.63;3.58;;;22.10;99.90;;;;;;5092280;28;20024;-73
2021/07/05 10:57:10;;;;;;;8.88;4.13;;;21.90;99.90;;;;;;5091744;28;20074;-70
2021/07/05 10:59:38;;;;;;;11.65;3.40;;;21.80;99.90;;;;;;5090621;28;20032;-72
2021/07/05 11:02:50;;;;;;;8.73;3.55;;;21.60;99.90;;;;;;5088188;28;20043;-72
2021/07/05 11:05:27;;;;;;;9.57;4.57;;;21.20;99.90;;;;;;5086487;28;20048;-74
2021/07/05 11:07:55;;;;;;;12.48;5.43;;;21.00;99.90;;;;;;5089362;28;20032;-72
2021/07/05 11:10:30;;;;;;;6.93;3.58;;;20.80;99.90;;;;;;5087539;28;20028;-72
2021/07/05 11:12:58;;;;;;;8.57;4.45;;;20.60;99.90;;;;;;5090774;28;20031;-72
2021/07/05 11:15:47;;;;;;;12.60;3.70;;;20.50;99.90;;;;;;5085883;28;20016;-73
2021/07/05 11:18:42;;;;;;;10.27;3.53;;;20.40;99.90;;;;;;5086358;28;20016;-73
2021/07/05 11:21:10;;;;;;;7.05;3.65;;;20.30;99.90;;;;;;5071335;28;20032;-72
2021/07/05 11:23:54;;;;;;;6.43;4.40;;;20.30;99.90;;;;;;5085694;28;20024;-73
2021/07/05 11:26:22;;;;;;;14.40;5.90;;;20.30;99.90;;;;;;5088179;28;20028;-72
2021/07/05 11:29:10;;;;;;;7.70;5.30;;;20.30;99.90;;;;;;5084115;28;20023;-72
2021/07/05 11:31:49;;;;;;;8.10;5.47;;;20.30;99.90;;;;;;5083142;28;20028;-73
2021/07/05 11:34:32;;;;;;;9.60;4.93;;;20.20;99.90;;;;;;5080667;28;20027;-73
2021/07/05 11:37:13;;;;;;;9.05;5.70;;;20.10;99.90;;;;;;5084929;28;20025;-73
2021/07/05 11:39:48;;;;;;;7.90;4.43;;;20.10;99.90;;;;;;5089359;28;20020;-73
2021/07/05 11:42:31;;;;;;;9.02;4.80;;;20.00;99.90;;;;;;5089616;28;20028;-73
2021/07/05 11:44:57;;;;;;;8.15;4.95;;;20.20;99.90;;;;;;5077506;28;20032;-73
2021/07/05 11:47:42;;;;;;;10.30;5.80;;;20.30;99.90;;;;;;5086602;28;20139;-72
2021/07/05 11:50:24;;;;;;;13.45;6.25;;;20.40;99.90;;;;;;5087558;28;20043;-73
2021/07/05 11:52:59;;;;;;;11.40;4.65;;;20.70;99.90;;;;;;5073322;28;20016;-72
2021/07/05 11:55:28;;;;;;;9.93;4.80;;;20.90;99.90;;;;;;5083381;28;20032;-73
2021/07/05 11:57:56;;;;;;;10.15;5.30;;;21.00;99.90;;;;;;5088729;28;20122;-73
2021/07/05 12:00:27;;;;;;;6.05;4.93;;;21.10;99.90;;;;;;5086732;28;20430;-74
2021/07/05 12:03:12;;;;;;;12.13;4.72;;;20.90;99.90;;;;;;5088489;28;20020;-72
2021/07/05 12:05:41;;;;;;;6.63;3.78;;;20.80;99.90;;;;;;5085998;28;20047;-72
2021/07/05 12:08:14;;;;;;;6.43;4.25;;;20.70;99.90;;;;;;5088190;28;20483;-72
2021/07/05 12:10:45;;;;;;;9.38;5.25;;;20.50;99.90;;;;;;5090374;28;20039;-73
2021/07/05 12:13:11;;;;;;;6.85;3.72;;;20.50;99.90;;;;;;5084724;28;20131;-74
2021/07/05 12:15:40;;;;;;;4.97;3.25;;;20.50;99.90;;;;;;5091929;28;20028;-72
2021/07/05 12:18:06;;;;;;;2.65;2.30;;;20.50;99.90;;;;;;5075421;28;20023;-75
2021/07/05 12:20:32;;;;;;;2.78;2.28;;;20.60;99.90;;;;;;5091286;28;20028;-73
2021/07/05 12:23:08;;;;;;;2.55;2.35;;;20.80;99.90;;;;;;5079008;28;20020;-74
2021/07/05 12:25:34;;;;;;;5.38;2.15;;;20.90;99.90;;;;;;5076657;28;20037;-74
2021/07/05 12:28:13;;;;;;;2.03;1.80;;;21.20;99.90;;;;;;5081891;28;20073;-72
2021/07/05 12:30:46;;;;;;;2.63;2.13;;;21.60;99.90;;;;;;5078167;28;20414;-72
2021/07/05 12:33:11;;;;;;;4.18;2.45;;;22.00;99.90;;;;;;5082427;28;20274;-73
2021/07/05 12:35:41;;;;;;;2.65;2.08;;;22.30;99.90;;;;;;5079415;28;20296;-72
2021/07/05 12:38:12;;;;;;;3.20;2.08;;;22.50;99.90;;;;;;5080840;28;20040;-72
2021/07/05 12:40:38;;;;;;;2.58;1.60;;;22.40;99.90;;;;;;5079258;28;20028;-73
2021/07/05 12:43:12;;;;;;;1.83;1.65;;;22.40;99.90;;;;;;5079741;28;20017;-74
2021/07/05 12:45:44;;;;;;;2.03;1.60;;;22.20;99.90;;;;;;5081087;28;21251;-72
2021/07/05 12:48:21;;;;;;;3.17;2.75;;;22.10;99.90;;;;;;5073033;28;20052;-74
2021/07/05 12:51:01;;;;;;;2.92;2.47;;;21.80;99.90;;;;;;5080784;28;20461;-74